Time;durP1;ratioP1;P1;durP2;ratioP2;P2;SDS_P1;SDS_P2;PMS_P1;PMS_P2;Temp;Humidity;BMP_temperature;BMP_pressure;BME280_temperature;BME280_humidity;BME280_pressure;Samples;Min_cycle;Max_cycle;Signal;HPM_P1;HPM_P2
2022/12/13 00:01:33;;;;;;;43.92;14.38;;;;;;;-8.97;86.81;95681.44;4990788;28;20406;-80
2022/12/13 00:04:02;;;;;;;38.72;14.95;;;;;;;-8.96;87.03;95687.53;4990920;28;20047;-78
2022/12/13 00:06:29;;;;;;;42.80;15.55;;;;;;;-9.03;87.08;95684.09;4991295;28;20069;-80
2022/12/13 00:08:56;;;;;;;43.53;14.70;;;;;;;-9.13;87.03;95673.22;4991456;28;20046;-82
2022/12/13 00:11:23;;;;;;;39.72;13.82;;;;;;;-9.12;87.09;95675.63;4998880;28;20053;-84
2022/12/13 00:13:51;;;;;;;34.72;13.82;;;;;;;-9.13;87.06;95671.38;4991526;28;20062;-79
2022/12/13 00:16:21;;;;;;;45.78;15.52;;;;;;;-9.15;86.69;95668.13;4990706;28;20053;-79
2022/12/13 00:18:48;;;;;;;39.50;14.05;;;;;;;-9.19;86.78;95672.22;4991574;28;20054;-80
2022/12/13 00:21:17;;;;;;;45.33;13.93;;;;;;;-9.26;86.73;95672.25;4997610;28;20045;-78
2022/12/13 00:23:44;;;;;;;51.45;15.43;;;;;;;-9.24;86.65;95666.75;4995108;28;20398;-80
2022/12/13 00:26:13;;;;;;;50.58;14.82;;;;;;;-9.29;86.57;95664.78;4996374;28;20050;-81
2022/12/13 00:28:40;;;;;;;47.53;14.77;;;;;;;-9.31;86.66;95661.53;5006908;28;20049;-81
2022/12/13 00:31:09;;;;;;;38.97;13.23;;;;;;;-9.33;86.54;95668.84;4991295;28;20038;-81
2022/12/13 00:33:37;;;;;;;56.17;14.20;;;;;;;-9.43;86.71;95662.41;4998739;28;20139;-80
2022/12/13 00:36:05;;;;;;;42.47;13.10;;;;;;;-9.43;86.61;95657.16;4991094;28;20046;-79
2022/12/13 00:38:31;;;;;;;42.30;14.07;;;;;;;-9.46;86.69;95653.09;4999036;28;20542;-80
2022/12/13 00:40:58;;;;;;;39.08;14.07;;;;;;;-9.51;86.55;95650.25;4991106;28;20046;-79
2022/12/13 00:43:24;;;;;;;44.13;13.75;;;;;;;-9.51;86.59;95651.06;4994401;28;20050;-79
2022/12/13 00:45:51;;;;;;;46.30;14.32;;;;;;;-9.54;86.53;95650.72;4994370;28;20465;-82
2022/12/13 00:48:19;;;;;;;48.60;13.80;;;;;;;-9.59;86.47;95643.44;4994786;28;20046;-79
2022/12/13 00:50:45;;;;;;;52.05;13.05;;;;;;;-9.61;86.40;95644.63;4994462;28;20050;-79
2022/12/13 00:53:12;;;;;;;44.53;13.07;;;;;;;-9.66;86.12;95636.53;4994375;28;20046;-79
2022/12/13 00:55:41;;;;;;;41.78;12.65;;;;;;;-9.65;86.00;95640.81;4997075;28;20054;-80
2022/12/13 00:58:07;;;;;;;55.20;14.45;;;;;;;-9.67;86.04;95641.00;4999936;28;20493;-78
2022/12/13 01:00:34;;;;;;;47.65;13.57;;;;;;;-9.67;85.81;95640.22;5002712;28;20133;-79
2022/12/13 01:03:19;;;;;;;27.50;11.43;;;;;;;-9.68;85.87;95639.41;4999006;28;20046;-80
2022/12/13 01:05:47;;;;;;;42.42;13.00;;;;;;;-9.72;85.69;95640.81;4997206;28;20057;-78
2022/12/13 01:08:13;;;;;;;42.80;13.00;;;;;;;-9.76;85.84;95643.09;4993999;28;20193;-78
2022/12/13 01:10:43;;;;;;;43.47;13.30;;;;;;;-9.76;85.79;95652.78;5002065;28;20045;-79
2022/12/13 01:13:10;;;;;;;43.88;13.75;;;;;;;-9.79;85.68;95647.97;4999572;28;20046;-79
2022/12/13 01:15:40;;;;;;;41.08;13.07;;;;;;;-9.79;85.35;95643.50;4998173;28;20042;-79
2022/12/13 01:18:07;;;;;;;48.65;14.02;;;;;;;-9.78;85.32;95647.75;5002613;28;20039;-79
2022/12/13 01:20:33;;;;;;;43.85;13.02;;;;;;;-9.78;85.14;95639.84;4995015;28;20126;-79
2022/12/13 01:23:02;;;;;;;42.00;12.88;;;;;;;-9.91;85.83;95639.09;5000697;28;20490;-79
2022/12/13 01:25:28;;;;;;;39.95;13.07;;;;;;;-9.81;85.96;95644.72;4992999;28;20410;-78
2022/12/13 01:27:55;;;;;;;43.00;12.55;;;;;;;-9.83;86.17;95630.94;4993837;28;20057;-78
2022/12/13 01:30:22;;;;;;;39.50;12.73;;;;;;;-9.80;86.17;95635.81;4994454;28;20050;-80
2022/12/13 01:32:48;;;;;;;40.80;12.30;;;;;;;-9.80;86.31;95635.81;4993218;28;20060;-79
2022/12/13 01:35:15;;;;;;;42.10;12.85;;;;;;;-9.81;86.40;95624.47;4999593;28;20042;-78
2022/12/13 01:37:41;;;;;;;39.53;12.88;;;;;;;-9.78;86.45;95633.75;4994759;28;20046;-79
2022/12/13 01:40:11;;;;;;;47.75;13.52;;;;;;;-9.81;86.36;95624.47;4993591;28;20046;-78
2022/12/13 01:42:38;;;;;;;43.42;13.25;;;;;;;-9.91;86.09;95633.81;5001586;28;20524;-80
2022/12/13 01:45:22;;;;;;;37.03;12.13;;;;;;;-9.93;86.02;95631.38;4994126;28;20050;-79
2022/12/13 01:47:53;;;;;;;39.30;12.55;;;;;;;-9.95;85.68;95633.44;4994116;28;20096;-79
2022/12/13 01:50:23;;;;;;;40.72;12.23;;;;;;;-9.94;85.76;95624.50;5001925;28;20462;-78
2022/12/13 01:52:50;;;;;;;38.70;12.70;;;;;;;-9.99;85.74;95619.03;4993584;28;20068;-79
2022/12/13 01:55:24;;;;;;;34.35;11.20;;;;;;;-10.03;85.79;95623.91;4993241;28;20050;-79
2022/12/13 01:57:52;;;;;;;38.92;12.32;;;;;;;-10.07;85.51;95612.19;5001485;28;20050;-79
2022/12/13 02:00:19;;;;;;;41.13;12.93;;;;;;;-10.08;85.52;95607.13;4997760;28;20047;-79
2022/12/13 02:02:48;;;;;;;45.95;12.95;;;;;;;-10.11;85.60;95612.81;4993342;28;20038;-80
2022/12/13 02:05:22;;;;;;;42.50;13.05;;;;;;;-10.09;85.34;95611.56;4992875;28;20046;-79
2022/12/13 02:07:49;;;;;;;33.80;11.68;;;;;;;-10.11;85.38;95602.28;4992996;28;20490;-79
2022/12/13 02:10:15;;;;;;;40.50;12.57;;;;;;;-10.16;85.27;95599.47;4992797;28;20042;-79
2022/12/13 02:12:43;;;;;;;46.10;12.13;;;;;;;-10.15;85.19;95599.25;4992510;28;20509;-79
2022/12/13 02:15:14;;;;;;;36.85;11.63;;;;;;;-10.15;85.02;95606.34;4992959;28;20054;-78
2022/12/13 02:18:34;;;;;;;39.03;11.90;;;;;;;-10.22;85.02;95605.56;4992983;28;20046;-79
2022/12/13 02:21:06;;;;;;;38.20;12.07;;;;;;;-10.27;84.74;95601.75;4944140;29;20524;-79
2022/12/13 02:24:01;;;;;;;40.28;12.05;;;;;;;-10.30;84.57;95599.50;4934840;29;20428;-79
2022/12/13 02:26:43;;;;;;;44.90;13.50;;;;;;;-10.32;84.63;95591.03;4968857;28;20134;-79
2022/12/13 02:29:33;;;;;;;31.25;11.35;;;;;;;-10.33;85.02;95589.41;4987538;28;20391;-79
2022/12/13 02:32:09;;;;;;;35.35;11.60;;;;;;;-10.28;85.35;95586.97;4993326;28;20042;-78
2022/12/13 02:34:41;;;;;;;41.28;12.57;;;;;;;-10.38;85.59;95580.53;4993583;28;20043;-79
2022/12/13 02:37:17;;;;;;;32.45;11.05;;;;;;;-10.45;86.23;95574.44;5004345;28;20054;-79
2022/12/13 02:39:50;;;;;;;37.50;11.13;;;;;;;-10.46;86.27;95578.91;4994120;28;20493;-78
2022/12/13 02:42:21;;;;;;;37.78;12.13;;;;;;;-10.43;86.06;95575.88;4992745;28;20422;-78
2022/12/13 02:44:52;;;;;;;44.67;12.63;;;;;;;-10.40;86.11;95572.00;5000125;28;20741;-79
2022/12/13 02:47:24;;;;;;;36.22;12.13;;;;;;;-10.38;85.96;95570.81;4997054;28;20046;-80
2022/12/13 02:49:55;;;;;;;31.43;11.33;;;;;;;-10.37;86.13;95564.50;5003535;28;20045;-79
2022/12/13 02:52:26;;;;;;;29.05;10.82;;;;;;;-10.38;86.24;95564.72;4996988;28;20289;-79
2022/12/13 02:54:54;;;;;;;51.47;13.15;;;;;;;-10.35;86.19;95559.84;4984096;28;20566;-78
2022/12/13 02:57:30;;;;;;;35.08;11.57;;;;;;;-10.32;86.03;95574.44;4999255;28;20421;-78
2022/12/13 02:59:59;;;;;;;37.78;11.88;;;;;;;-10.33;86.07;95552.56;4985056;28;20047;-79
2022/12/13 03:02:40;;;;;;;32.53;11.55;;;;;;;-10.32;85.97;95554.19;5000214;28;20046;-79
2022/12/13 03:08:13;;;;;;;40.95;12.38;;;;;;;-10.31;86.00;95545.25;4982658;28;20046;-79
2022/12/13 03:10:45;;;;;;;41.08;12.10;;;;;;;-10.30;85.91;95536.34;5000017;28;20042;-79
2022/12/13 03:13:36;;;;;;;40.53;12.25;;;;;;;-10.31;85.98;95540.00;4992095;28;20042;-79
2022/12/13 03:16:10;;;;;;;36.05;11.00;;;;;;;-10.31;85.83;95534.72;4992148;28;20065;-82
2022/12/13 03:18:40;;;;;;;43.95;12.30;;;;;;;-10.31;85.83;95533.94;4992675;28;20073;-80
2022/12/13 03:21:11;;;;;;;36.13;11.25;;;;;;;-10.32;85.63;95533.13;4992334;28;20045;-81
2022/12/13 03:23:38;;;;;;;41.17;13.05;;;;;;;-10.34;85.73;95535.13;5000689;28;20460;-79
2022/12/13 03:26:09;;;;;;;31.63;11.68;;;;;;;-10.29;85.66;95532.69;4991820;28;20042;-78
2022/12/13 03:28:38;;;;;;;43.67;13.13;;;;;;;-10.28;85.73;95531.69;4992981;28;20050;-79
2022/12/13 03:31:06;;;;;;;35.03;11.45;;;;;;;-10.23;85.76;95530.25;4994790;28;20077;-78
2022/12/13 03:33:33;;;;;;;38.97;12.15;;;;;;;-10.19;85.80;95536.69;4991898;28;20042;-79
2022/12/13 03:36:01;;;;;;;35.80;11.68;;;;;;;-10.15;85.98;95537.88;4992842;28;20042;-79
2022/12/13 03:38:29;;;;;;;31.30;11.30;;;;;;;-10.12;86.21;95527.75;5000059;28;20046;-79
2022/12/13 03:40:59;;;;;;;30.27;10.75;;;;;;;-10.10;86.25;95535.44;4992558;28;20050;-79
2022/12/13 03:43:26;;;;;;;34.30;11.77;;;;;;;-10.08;86.35;95533.38;4999947;28;20046;-79
2022/12/13 03:45:54;;;;;;;32.30;11.52;;;;;;;-10.07;86.46;95529.75;5000269;28;20554;-79
2022/12/13 03:48:21;;;;;;;36.28;12.65;;;;;;;-10.06;86.39;95524.28;4992177;28;20049;-81
2022/12/13 03:50:49;;;;;;;36.53;12.70;;;;;;;-10.06;86.35;95536.63;4991311;28;20054;-79
2022/12/13 03:53:17;;;;;;;29.33;11.23;;;;;;;-10.05;86.49;95528.53;4998468;28;20064;-78
2022/12/13 03:55:43;;;;;;;42.75;12.93;;;;;;;-10.06;86.43;95528.75;4996164;28;20054;-78
2022/12/13 03:58:10;;;;;;;30.35;11.80;;;;;;;-10.07;86.56;95524.50;4998396;28;20042;-78
2022/12/13 04:00:36;;;;;;;42.28;13.40;;;;;;;-10.06;86.60;95526.09;4992034;28;20057;-78
2022/12/13 04:03:04;;;;;;;36.17;13.55;;;;;;;-10.06;86.56;95521.66;4991974;28;20049;-80
2022/12/13 04:05:31;;;;;;;31.27;11.50;;;;;;;-10.08;86.43;95517.59;5000216;28;20490;-79
2022/12/13 04:07:58;;;;;;;30.88;11.98;;;;;;;-10.16;86.32;95518.66;4992136;28;20506;-79
2022/12/13 04:10:26;;;;;;;36.75;11.90;;;;;;;-10.18;86.27;95511.97;5007243;28;20045;-80
2022/12/13 04:15:37;;;;;;;37.10;12.13;;;;;;;-10.25;85.75;95512.03;4991496;28;20121;-78
2022/12/13 04:18:04;;;;;;;31.77;11.15;;;;;;;-10.31;85.66;95513.66;5003124;28;20491;-79
2022/12/13 04:20:30;;;;;;;34.17;12.10;;;;;;;-10.34;84.93;95514.06;4995516;28;20050;-78
2022/12/13 04:22:57;;;;;;;39.72;13.32;;;;;;;-10.36;85.10;95512.69;4995336;28;20038;-80
2022/12/13 04:25:24;;;;;;;32.15;11.35;;;;;;;-10.55;84.89;95511.72;4995082;28;20058;-78
2022/12/13 04:27:51;;;;;;;31.25;11.35;;;;;;;-10.51;85.01;95512.94;5003285;28;20042;-78
2022/12/13 04:30:18;;;;;;;42.17;12.50;;;;;;;-10.57;84.87;95524.28;4995117;28;20053;-78
2022/12/13 04:32:45;;;;;;;38.03;12.70;;;;;;;-10.59;84.88;95532.41;4994961;28;20107;-79
2022/12/13 04:35:11;;;;;;;36.15;11.90;;;;;;;-10.61;84.74;95529.13;5003556;28;20046;-78
2022/12/13 04:37:38;;;;;;;44.03;13.20;;;;;;;-10.65;84.78;95517.41;4995448;28;20097;-78
2022/12/13 04:40:05;;;;;;;32.80;11.60;;;;;;;-10.68;84.72;95522.28;4999696;28;20042;-79
2022/12/13 04:42:32;;;;;;;38.65;14.20;;;;;;;-10.70;84.63;95521.69;5006159;28;20049;-80
2022/12/13 04:45:00;;;;;;;45.05;14.20;;;;;;;-10.79;84.78;95516.66;5002610;28;20418;-79
2022/12/13 04:47:26;;;;;;;39.13;13.02;;;;;;;-10.74;84.75;95518.66;4995084;28;20050;-79
2022/12/13 04:49:53;;;;;;;38.35;14.15;;;;;;;-10.75;84.79;95518.84;4994885;28;20406;-78
2022/12/13 04:52:20;;;;;;;40.50;12.63;;;;;;;-10.74;85.04;95517.84;4998917;28;20056;-79
2022/12/13 04:54:47;;;;;;;54.10;15.80;;;;;;;-10.72;85.26;95510.56;4995028;28;20042;-79
2022/12/13 04:57:13;;;;;;;50.40;14.88;;;;;;;-10.68;85.10;95517.03;4994645;28;20124;-79
2022/12/13 04:59:40;;;;;;;46.72;14.63;;;;;;;-10.64;85.26;95507.72;4994255;28;20042;-79
2022/12/13 05:02:08;;;;;;;36.28;13.25;;;;;;;-10.62;85.36;95505.69;4994333;28;20435;-78
2022/12/13 05:04:35;;;;;;;39.40;13.52;;;;;;;-10.65;85.41;95500.81;4994554;28;20472;-79
2022/12/13 05:07:03;;;;;;;36.97;13.38;;;;;;;-10.55;85.37;95498.56;4994518;28;20046;-80
2022/12/13 05:09:29;;;;;;;44.30;14.10;;;;;;;-10.45;85.30;95506.84;4994879;28;20043;-79
2022/12/13 05:11:56;;;;;;;35.63;12.95;;;;;;;-10.33;85.68;95510.44;4994337;28;20039;-79
2022/12/13 05:14:22;;;;;;;44.10;13.60;;;;;;;-10.22;86.04;95501.06;4994344;28;20046;-79
2022/12/13 05:16:49;;;;;;;45.78;15.60;;;;;;;-10.16;86.38;95504.69;4994006;28;20145;-79
2022/12/13 05:19:17;;;;;;;48.30;14.32;;;;;;;-10.04;86.56;95501.16;4995519;28;20042;-80
2022/12/13 05:21:43;;;;;;;49.80;15.27;;;;;;;-9.94;86.76;95492.81;4998533;28;20076;-78
2022/12/13 05:24:10;;;;;;;49.22;15.95;;;;;;;-9.90;87.03;95496.66;5002280;28;20042;-79
2022/12/13 05:26:36;;;;;;;50.05;15.70;;;;;;;-9.80;87.23;95494.34;5001730;28;20054;-79
2022/12/13 05:29:03;;;;;;;59.22;17.27;;;;;;;-9.82;87.88;95491.09;5006547;28;20408;-78
2022/12/13 05:31:30;;;;;;;54.55;16.60;;;;;;;-9.72;88.71;95495.91;4992583;28;20057;-78
2022/12/13 05:33:56;;;;;;;52.75;15.00;;;;;;;-9.62;88.93;95495.47;4994299;28;20061;-79
2022/12/13 05:36:25;;;;;;;54.60;16.20;;;;;;;-9.50;89.37;95485.84;4989704;28;20513;-78
2022/12/13 05:38:51;;;;;;;46.55;16.42;;;;;;;-9.44;89.81;95484.19;5001064;28;20493;-86
2022/12/13 05:41:20;;;;;;;55.78;17.00;;;;;;;-9.39;90.00;95487.00;4994018;28;20487;-81
2022/12/13 05:43:47;;;;;;;50.30;16.92;;;;;;;-9.34;90.37;95482.69;4995452;28;20042;-83
2022/12/13 05:46:13;;;;;;;59.15;16.45;;;;;;;-9.28;90.68;95487.09;4995495;28;20042;-87
2022/12/13 05:48:40;;;;;;;55.92;17.00;;;;;;;-9.21;90.91;95487.84;4994257;28;20051;-86
2022/12/13 05:51:07;;;;;;;53.42;18.90;;;;;;;-9.24;90.96;95483.03;4994330;28;20402;-81
2022/12/13 05:53:35;;;;;;;69.20;19.08;;;;;;;-9.15;90.99;95475.63;4994823;28;20043;-84
2022/12/13 05:56:02;;;;;;;50.70;16.85;;;;;;;-9.13;90.99;95478.06;4998866;28;20052;-84
2022/12/13 05:58:29;;;;;;;48.03;15.60;;;;;;;-9.06;91.08;95473.53;4996545;28;20057;-80
2022/12/13 06:00:55;;;;;;;55.85;16.15;;;;;;;-8.99;90.97;95479.53;4994325;28;20046;-86
2022/12/13 06:03:22;;;;;;;48.55;16.30;;;;;;;-9.03;90.84;95473.06;4993251;28;20051;-86
2022/12/13 06:05:48;;;;;;;53.47;17.27;;;;;;;-9.01;90.79;95471.06;5001020;28;20526;-81
2022/12/13 06:08:15;;;;;;;51.90;17.77;;;;;;;-8.99;90.74;95471.63;4993146;28;20066;-84
2022/12/13 06:10:43;;;;;;;49.03;16.75;;;;;;;-8.99;90.44;95469.78;4993522;28;20057;-81
2022/12/13 06:13:09;;;;;;;48.00;16.98;;;;;;;-8.98;90.52;95465.31;4993066;28;20501;-80
2022/12/13 06:15:38;;;;;;;53.10;18.30;;;;;;;-8.99;90.35;95469.00;4992621;28;20126;-79
2022/12/13 06:18:05;;;;;;;53.65;17.52;;;;;;;-9.00;90.28;95462.09;4986318;28;20039;-83
2022/12/13 06:20:31;;;;;;;52.42;18.35;;;;;;;-9.01;89.98;95476.31;4992614;28;20050;-79
2022/12/13 06:22:59;;;;;;;60.10;18.65;;;;;;;-9.12;90.04;95471.75;4992952;28;20053;-80
2022/12/13 06:25:25;;;;;;;56.95;17.90;;;;;;;-9.13;90.21;95472.78;4992387;28;20521;-82
2022/12/13 06:27:54;;;;;;;52.22;17.38;;;;;;;-9.12;89.96;95480.47;4992545;28;20061;-79
2022/12/13 06:30:20;;;;;;;56.75;18.73;;;;;;;-9.13;90.00;95481.50;5000500;28;20053;-80
2022/12/13 06:32:49;;;;;;;53.45;17.45;;;;;;;-9.15;89.69;95486.16;4992796;28;20490;-80
2022/12/13 06:35:16;;;;;;;58.20;18.65;;;;;;;-9.15;89.53;95486.16;4992817;28;20058;-79
2022/12/13 06:37:42;;;;;;;57.65;18.92;;;;;;;-9.16;89.49;95478.50;4992420;28;20494;-78
2022/12/13 06:40:10;;;;;;;51.50;19.02;;;;;;;-9.23;89.37;95483.81;4992132;28;20044;-82
2022/12/13 06:42:36;;;;;;;49.90;18.45;;;;;;;-9.18;89.47;95491.09;5000011;28;20046;-80
2022/12/13 06:45:05;;;;;;;59.60;19.50;;;;;;;-9.20;89.19;95491.28;4992262;28;20057;-79
2022/12/13 06:47:32;;;;;;;62.00;21.02;;;;;;;-9.21;89.15;95501.03;4992516;28;20564;-82
2022/12/13 06:49:59;;;;;;;51.60;19.42;;;;;;;-9.24;89.03;95493.56;4999625;28;20415;-80
2022/12/13 06:52:25;;;;;;;55.55;18.70;;;;;;;-9.31;89.15;95492.00;4992131;28;20042;-80
2022/12/13 06:54:52;;;;;;;57.35;20.27;;;;;;;-9.27;89.21;95491.34;4992547;28;20093;-80
2022/12/13 06:57:19;;;;;;;56.65;20.17;;;;;;;-9.26;88.69;95495.59;4999265;28;20104;-80
2022/12/13 06:59:47;;;;;;;60.45;19.02;;;;;;;-9.26;88.21;95500.06;4992506;28;20533;-79
2022/12/13 07:02:15;;;;;;;55.35;18.40;;;;;;;-9.28;87.95;95502.91;5000035;28;20104;-80
2022/12/13 07:04:41;;;;;;;44.28;16.58;;;;;;;-9.29;87.78;95498.69;4994550;28;20043;-83
2022/12/13 07:07:08;;;;;;;43.97;17.67;;;;;;;-9.28;87.94;95497.66;5017056;28;20057;-88
2022/12/13 07:09:34;;;;;;;47.90;17.55;;;;;;;-9.29;87.96;95511.88;5000585;28;20437;-84
2022/12/13 07:12:01;;;;;;;55.17;18.83;;;;;;;-9.29;87.88;95505.75;4993268;28;20057;-80
2022/12/13 07:14:27;;;;;;;60.17;18.38;;;;;;;-9.27;88.20;95515.06;5002422;28;20662;-81
2022/12/13 07:16:54;;;;;;;61.05;18.90;;;;;;;-9.27;88.13;95515.06;4981300;28;20050;-80
2022/12/13 07:19:22;;;;;;;59.10;17.73;;;;;;;-9.26;88.23;95511.41;4988887;28;20053;-79
2022/12/13 07:21:48;;;;;;;63.53;18.73;;;;;;;-9.33;88.30;95510.66;4989285;28;20081;-79
2022/12/13 07:24:15;;;;;;;59.58;18.15;;;;;;;-9.30;88.27;95507.59;4991314;28;20046;-82
2022/12/13 07:26:41;;;;;;;43.60;16.60;;;;;;;-9.31;88.13;95508.63;4989659;28;20046;-83
2022/12/13 07:29:08;;;;;;;54.83;17.73;;;;;;;-9.27;87.97;95503.72;4990793;28;20053;-83
2022/12/13 07:31:35;;;;;;;67.70;20.05;;;;;;;-9.28;88.23;95502.91;4989261;28;20129;-78
2022/12/13 07:34:02;;;;;;;71.47;19.77;;;;;;;-9.24;88.15;95498.84;4988168;28;20438;-83
2022/12/13 07:36:30;;;;;;;51.03;19.23;;;;;;;-9.22;87.98;95502.06;4993710;28;20578;-79
2022/12/13 07:38:57;;;;;;;53.13;17.27;;;;;;;-9.23;87.89;95500.44;4990359;28;20048;-85
2022/12/13 07:41:26;;;;;;;53.83;17.35;;;;;;;-9.25;87.87;95512.22;4991646;28;20046;-81
2022/12/13 07:43:54;;;;;;;58.15;17.80;;;;;;;-9.18;87.92;95506.91;4990517;28;20050;-84
2022/12/13 07:46:20;;;;;;;56.08;17.50;;;;;;;-9.24;87.79;95498.84;4989954;28;20391;-84
2022/12/13 07:48:46;;;;;;;52.22;17.73;;;;;;;-9.20;87.37;95499.19;4995371;28;20058;-80
2022/12/13 07:51:13;;;;;;;62.17;17.98;;;;;;;-9.27;86.90;95493.97;4988326;28;20046;-80
2022/12/13 07:53:41;;;;;;;50.92;17.75;;;;;;;-9.18;87.07;95499.81;4995384;28;20042;-84
2022/12/13 07:56:09;;;;;;;52.38;18.13;;;;;;;-9.11;86.79;95502.38;4993490;28;20046;-87
2022/12/13 07:58:36;;;;;;;50.75;17.13;;;;;;;-9.01;86.20;95511.41;4992817;28;20046;-87
2022/12/13 08:01:05;;;;;;;46.30;15.80;;;;;;;-8.93;86.12;95515.59;5000176;28;20053;-93
2022/12/13 08:03:31;;;;;;;61.47;18.20;;;;;;;-8.90;86.11;95509.09;4994138;28;20413;-79
2022/12/13 08:05:59;;;;;;;53.60;17.00;;;;;;;-8.84;85.68;95516.94;4988120;28;20706;-80
2022/12/13 08:08:26;;;;;;;62.35;18.48;;;;;;;-8.84;85.29;95518.78;4995687;28;20065;-79
2022/12/13 08:10:54;;;;;;;60.13;17.38;;;;;;;-8.77;85.17;95520.34;4988757;28;20069;-86
2022/12/13 08:13:20;;;;;;;65.30;17.23;;;;;;;-8.70;84.74;95521.06;4988715;28;20112;-81
2022/12/13 08:15:47;;;;;;;66.05;16.98;;;;;;;-8.53;84.50;95525.78;4990470;28;20349;-88
2022/12/13 08:18:13;;;;;;;62.45;16.73;;;;;;;-8.49;83.91;95521.69;4993557;28;20053;-85
2022/12/13 08:20:40;;;;;;;70.10;17.58;;;;;;;-8.48;83.98;95518.81;4996048;28;20524;-81
2022/12/13 08:23:06;;;;;;;54.88;17.15;;;;;;;-8.49;83.56;95511.13;4994642;28;20053;-82
2022/12/13 08:25:33;;;;;;;66.40;17.05;;;;;;;-8.45;83.33;95512.31;4989997;28;20057;-77
2022/12/13 08:28:00;;;;;;;58.78;19.05;;;;;;;-8.49;82.72;95513.78;4988892;28;20054;-80
2022/12/13 08:30:27;;;;;;;56.67;17.25;;;;;;;-8.47;82.52;95509.06;4989362;28;20058;-81
2022/12/13 08:32:54;;;;;;;65.53;18.10;;;;;;;-8.48;82.59;95512.75;4987118;28;20042;-82
2022/12/13 08:35:21;;;;;;;55.67;16.17;;;;;;;-8.53;81.45;95515.22;4997140;28;20134;-84
2022/12/13 08:37:48;;;;;;;57.20;15.93;;;;;;;-8.49;81.39;95506.66;4997777;28;20077;-82
2022/12/13 08:40:15;;;;;;;53.83;17.23;;;;;;;-8.38;81.58;95499.03;4988192;28;20058;-79
2022/12/13 08:42:41;;;;;;;72.50;16.77;;;;;;;-8.35;81.54;95502.00;4987032;28;20050;-78
2022/12/13 08:45:11;;;;;;;65.18;17.30;;;;;;;-8.31;81.87;95513.72;4987042;28;20053;-80
2022/12/13 08:47:37;;;;;;;63.30;16.20;;;;;;;-8.21;82.11;95516.66;4987523;28;20062;-83
2022/12/13 08:50:05;;;;;;;58.53;17.35;;;;;;;-8.22;82.14;95517.69;4988886;28;20494;-81
2022/12/13 08:52:32;;;;;;;48.58;16.25;;;;;;;-8.19;81.74;95527.81;4997889;28;20050;-91
2022/12/13 08:54:58;;;;;;;65.82;17.27;;;;;;;-7.99;81.69;95532.03;4990066;28;20042;-86
2022/12/13 08:57:25;;;;;;;61.22;16.23;;;;;;;-7.96;80.88;95531.63;4987731;28;20050;-81
2022/12/13 08:59:53;;;;;;;47.63;17.35;;;;;;;-7.99;81.03;95534.69;4987416;28;20084;-84
2022/12/13 09:02:21;;;;;;;47.42;15.30;;;;;;;-7.85;80.77;95536.16;4987331;28;20055;-84
2022/12/13 09:04:47;;;;;;;66.38;17.67;;;;;;;-7.86;80.09;95536.38;4992984;28;20085;-90
2022/12/13 09:07:14;;;;;;;53.80;16.05;;;;;;;-7.82;79.90;95538.34;4989559;28;20128;-85
2022/12/13 09:09:40;;;;;;;67.22;17.35;;;;;;;-7.82;79.52;95530.44;4990019;28;20049;-90
2022/12/13 09:12:07;;;;;;;46.67;15.30;;;;;;;-7.90;79.10;95530.72;4991887;28;20506;-85
2022/12/13 09:14:34;;;;;;;49.05;16.58;;;;;;;-8.00;80.08;95527.81;4994006;28;20054;-87
2022/12/13 09:17:01;;;;;;;52.00;16.00;;;;;;;-8.00;79.85;95531.25;5004615;28;20045;-84
2022/12/13 09:19:29;;;;;;;46.13;16.05;;;;;;;-7.98;79.64;95534.50;4997383;28;20058;-91
2022/12/13 09:21:55;;;;;;;60.33;17.23;;;;;;;-8.00;79.70;95533.09;4990011;28;20145;-90
2022/12/13 09:24:22;;;;;;;65.03;17.52;;;;;;;-7.99;79.80;95534.69;4993812;28;20490;-90
2022/12/13 09:26:49;;;;;;;55.40;16.42;;;;;;;-8.04;79.80;95529.25;4992473;28;20233;-88
2022/12/13 09:29:16;;;;;;;59.30;18.13;;;;;;;-7.97;80.35;95525.53;4993708;28;20050;-83
2022/12/13 09:31:42;;;;;;;63.75;17.65;;;;;;;-7.90;80.69;95530.72;4989775;28;20046;-85
2022/12/13 09:34:09;;;;;;;53.20;16.13;;;;;;;-7.75;80.42;95533.78;4990479;28;20498;-81
2022/12/13 09:36:37;;;;;;;53.60;16.70;;;;;;;-7.63;79.84;95521.41;4990031;28;20506;-80
2022/12/13 09:39:04;;;;;;;47.22;17.65;;;;;;;-7.50;79.38;95511.69;4992113;28;20076;-85
2022/12/13 09:41:35;;;;;;;50.83;15.57;;;;;;;-7.22;78.91;95511.88;4990154;28;20513;-81
2022/12/13 09:44:07;;;;;;;41.78;15.18;;;;;;;-7.00;77.48;95509.50;4991538;28;20046;-81
2022/12/13 09:46:37;;;;;;;48.50;16.17;;;;;;;-6.94;75.92;95508.59;4989956;28;20046;-82
2022/12/13 09:49:11;;;;;;;43.50;14.98;;;;;;;-6.90;75.99;95501.78;4990805;28;20050;-88
2022/12/13 09:51:39;;;;;;;45.40;15.20;;;;;;;-6.87;76.12;95503.19;5009248;28;20061;-86
2022/12/13 09:54:05;;;;;;;46.80;15.05;;;;;;;-6.76;75.65;95505.03;5006479;28;20050;-82
2022/12/13 09:56:33;;;;;;;56.97;17.05;;;;;;;-6.60;76.02;95504.34;4992849;28;20057;-83
2022/12/13 09:58:59;;;;;;;48.28;16.67;;;;;;;-6.26;74.97;95499.25;4998738;28;20058;-85
2022/12/13 10:01:26;;;;;;;63.35;16.38;;;;;;;-5.93;73.78;95500.44;4990289;28;20050;-83
2022/12/13 10:03:55;;;;;;;49.30;15.43;;;;;;;-5.71;73.38;95501.34;4991120;28;20050;-83
2022/12/13 10:06:23;;;;;;;46.10;15.95;;;;;;;-5.45;72.08;95489.34;4989295;28;20046;-85
2022/12/13 10:08:53;;;;;;;49.22;15.07;;;;;;;-5.34;71.30;95496.44;5005275;28;20054;-84
2022/12/13 10:11:21;;;;;;;56.65;15.85;;;;;;;-5.08;69.14;95496.88;4989917;28;20058;-80
2022/12/13 10:13:54;;;;;;;39.63;14.63;;;;;;;-4.99;69.13;95488.28;4989776;28;20133;-82
2022/12/13 10:16:27;;;;;;;58.63;16.65;;;;;;;-4.87;69.39;95484.72;4989533;28;20054;-81
2022/12/13 10:18:54;;;;;;;;;;;;;;;-5.19;68.93;95485.28;4983147;28;20043;-80
2022/12/13 10:21:27;;;;;;;56.25;15.40;;;;;;;-5.20;69.36;95481.03;4989540;28;19921;-82
2022/12/13 10:23:55;;;;;;;47.95;15.30;;;;;;;-4.72;69.99;95483.13;4989295;28;20058;-81
2022/12/13 10:26:22;;;;;;;55.75;16.05;;;;;;;-4.48;69.58;95489.06;4989205;28;20057;-82
2022/12/13 10:28:50;;;;;;;51.47;15.23;;;;;;;-4.51;68.50;95484.22;4989118;28;20057;-79
2022/12/13 10:31:18;;;;;;;67.20;16.95;;;;;;;-4.53;68.93;95481.00;4990107;28;20050;-83
2022/12/13 10:33:53;;;;;;;56.97;15.35;;;;;;;-4.71;68.30;95481.25;4989818;28;20058;-80
2022/12/13 10:36:37;;;;;;;45.83;15.70;;;;;;;-5.06;68.48;95479.69;4997302;28;20409;-87
2022/12/13 10:39:05;;;;;;;44.58;15.05;;;;;;;-5.23;69.84;95470.09;4984352;28;20046;-83
2022/12/13 10:41:35;;;;;;;43.97;14.25;;;;;;;-5.29;70.81;95471.84;4990241;28;20507;-90
2022/12/13 10:44:21;;;;;;;38.22;14.45;;;;;;;-5.41;71.27;95460.50;5002815;28;20045;-93
2022/12/13 10:46:50;;;;;;;47.65;15.10;;;;;;;-5.47;71.91;95458.81;5001999;28;20149;-85
2022/12/13 10:49:19;;;;;;;51.17;16.10;;;;;;;-5.42;72.75;95459.72;4990802;28;20050;-81
2022/12/13 10:51:47;;;;;;;54.33;15.82;;;;;;;-5.34;72.63;95469.09;4990612;28;20084;-87
2022/12/13 10:54:20;;;;;;;46.60;15.63;;;;;;;-5.07;72.03;95462.13;4990707;28;20046;-91
2022/12/13 10:56:49;;;;;;;45.33;15.82;;;;;;;-5.07;71.64;95464.78;4990630;28;20054;-82
2022/12/13 10:59:26;;;;;;;59.53;17.33;;;;;;;-5.27;71.59;95459.97;4990693;28;20069;-83
2022/12/13 11:01:53;;;;;;;44.45;15.85;;;;;;;-5.13;71.68;95449.81;4989628;28;20553;-83
2022/12/13 11:04:26;;;;;;;50.28;16.85;;;;;;;-5.16;72.43;95455.63;4989934;28;20522;-85
2022/12/13 11:06:53;;;;;;;52.25;16.10;;;;;;;-5.42;71.95;95456.25;4989728;28;20114;-80
2022/12/13 11:09:27;;;;;;;50.25;15.70;;;;;;;-5.26;72.57;95453.59;4996537;28;20054;-87
2022/12/13 11:11:58;;;;;;;49.30;16.88;;;;;;;-5.29;73.44;95458.56;4982313;28;20557;-85
2022/12/13 11:14:27;;;;;;;58.22;16.95;;;;;;;-5.02;74.15;95456.88;4999123;28;20132;-81
2022/12/13 11:16:57;;;;;;;48.78;16.15;;;;;;;-4.85;73.01;95453.44;4989378;28;20054;-84
2022/12/13 11:19:29;;;;;;;42.20;15.13;;;;;;;-4.77;71.32;95447.72;4994449;28;20050;-82
2022/12/13 11:21:56;;;;;;;37.10;14.95;;;;;;;-5.03;72.21;95449.19;4984789;28;20050;-89
2022/12/13 11:24:28;;;;;;;40.15;15.05;;;;;;;-5.03;71.96;95447.31;4992447;28;20050;-92
2022/12/13 11:26:58;;;;;;;38.90;14.73;;;;;;;-4.96;71.06;95443.69;4997645;28;20042;-91